createdAt,value
2023-04-10T00:02:24.820Z,42.83
2023-04-10T00:04:51.859Z,42.72
2023-04-10T00:07:18.847Z,46.88
2023-04-10T00:09:45.697Z,43.88
2023-04-10T00:12:12.428Z,47.15
2023-04-10T00:14:39.189Z,41.75
2023-04-10T00:17:06.047Z,46.70
2023-04-10T00:19:32.613Z,48.67
2023-04-10T00:21:59.493Z,44.25
2023-04-10T00:24:26.141Z,52.72
2023-04-10T00:26:52.738Z,43.67
2023-04-10T00:29:19.460Z,49.03
2023-04-10T00:31:46.199Z,45.30
2023-04-10T00:34:14.151Z,44.83
2023-04-10T00:36:41.035Z,47.38
2023-04-10T00:39:09.021Z,44.00
2023-04-10T00:41:35.705Z,39.72
2023-04-10T00:44:02.539Z,43.58
2023-04-10T00:46:31.084Z,43.42
2023-04-10T00:48:58.398Z,44.17
2023-04-10T00:51:26.500Z,40.72
2023-04-10T00:53:55.038Z,40.83
2023-04-10T00:56:24.269Z,40.10
2023-04-10T00:58:50.975Z,47.00
2023-04-10T01:01:17.870Z,47.58
2023-04-10T01:03:45.578Z,46.33
2023-04-10T01:06:46.236Z,39.72
2023-04-10T01:09:20.696Z,47.50
2023-04-10T01:12:09.692Z,46.22
2023-04-10T01:15:13.326Z,42.42
2023-04-10T01:17:50.947Z,39.67
2023-04-10T01:20:23.568Z,39.45
2023-04-10T01:23:08.875Z,39.85
2023-04-10T01:25:40.400Z,41.85
2023-04-10T01:28:19.120Z,41.42
2023-04-10T01:30:52.273Z,49.40
2023-04-10T01:33:22.788Z,41.88
2023-04-10T01:35:52.509Z,47.55
2023-04-10T01:38:21.646Z,43.92
2023-04-10T01:40:52.376Z,42.25
2023-04-10T01:43:20.756Z,39.42
2023-04-10T01:45:49.464Z,46.05
2023-04-10T01:48:17.832Z,45.00
2023-04-10T01:50:46.501Z,45.75
2023-04-10T01:53:13.763Z,45.05
2023-04-10T01:55:41.429Z,48.70
2023-04-10T01:58:08.766Z,36.38
2023-04-10T02:00:40.287Z,38.70
2023-04-10T02:03:07.222Z,42.10
2023-04-10T02:05:52.464Z,51.85
2023-04-10T02:08:29.680Z,47.28
2023-04-10T02:11:15.600Z,46.65
2023-04-10T02:13:42.699Z,42.83
2023-04-10T02:16:10.359Z,44.85
2023-04-10T02:18:38.677Z,44.08
2023-04-10T02:21:07.260Z,47.85
2023-04-10T02:23:34.041Z,56.63
2023-04-10T02:26:06.673Z,41.15
2023-04-10T02:28:33.296Z,36.92
2023-04-10T02:30:59.979Z,39.70
2023-04-10T02:33:26.645Z,40.97
2023-04-10T02:35:53.254Z,44.03
2023-04-10T02:38:19.858Z,41.58
2023-04-10T02:40:46.998Z,44.03
2023-04-10T02:43:13.596Z,39.78
2023-04-10T02:45:40.184Z,42.20
2023-04-10T02:48:06.938Z,41.00
2023-04-10T02:50:33.607Z,51.45
2023-04-10T02:53:00.551Z,48.65
2023-04-10T02:55:27.168Z,53.50
2023-04-10T02:57:53.803Z,60.55
2023-04-10T03:00:20.451Z,61.88
2023-04-10T03:02:47.114Z,64.88
2023-04-10T03:05:13.852Z,68.70
2023-04-10T03:07:40.605Z,70.03
2023-04-10T03:10:07.796Z,72.45
2023-04-10T03:12:34.425Z,69.50
2023-04-10T03:15:01.172Z,77.68
2023-04-10T03:17:27.787Z,75.57
2023-04-10T03:19:54.560Z,69.65
2023-04-10T03:22:21.184Z,79.03
2023-04-10T03:24:48.606Z,74.30
2023-04-10T03:27:17.374Z,74.85
2023-04-10T03:29:44.137Z,78.45
2023-04-10T03:32:10.731Z,78.82
2023-04-10T03:34:37.322Z,78.35
2023-04-10T03:37:03.928Z,80.88
2023-04-10T03:39:30.586Z,84.35
2023-04-10T03:41:57.628Z,79.43
2023-04-10T03:44:24.189Z,78.95
2023-04-10T03:46:50.920Z,73.78
2023-04-10T03:49:17.612Z,74.25
2023-04-10T03:51:44.262Z,71.50
2023-04-10T03:54:11.025Z,69.75
2023-04-10T03:56:37.670Z,71.80
2023-04-10T03:59:04.256Z,67.75
2023-04-10T04:01:30.921Z,72.45
2023-04-10T04:03:57.973Z,69.75
2023-04-10T04:06:25.560Z,71.78
2023-04-10T04:08:52.130Z,69.35
2023-04-10T04:11:18.738Z,70.25
2023-04-10T04:13:45.393Z,69.72
2023-04-10T04:16:12.132Z,70.00
2023-04-10T04:18:38.922Z,75.75
2023-04-10T04:21:06.179Z,72.38
2023-04-10T04:23:32.784Z,78.43
2023-04-10T04:25:59.436Z,75.55
2023-04-10T04:28:26.745Z,77.07
2023-04-10T04:30:54.131Z,69.32
2023-04-10T04:33:20.689Z,81.00
2023-04-10T04:35:47.270Z,78.85
2023-04-10T04:38:13.914Z,71.18
2023-04-10T04:40:40.921Z,75.05
2023-04-10T04:43:07.482Z,75.07
2023-04-10T04:45:34.095Z,73.10
2023-04-10T04:48:00.787Z,79.68
2023-04-10T04:50:27.383Z,77.40
2023-04-10T04:52:53.979Z,74.93
2023-04-10T04:55:20.646Z,78.05
2023-04-10T04:57:47.263Z,100.20
2023-04-10T05:00:14.534Z,93.57
2023-04-10T05:02:41.399Z,92.88
2023-04-10T05:05:08.510Z,95.95
2023-04-10T05:07:35.540Z,101.32
2023-04-10T05:10:02.163Z,129.82
2023-04-10T05:12:28.832Z,124.38
2023-04-10T05:14:55.682Z,134.13
2023-04-10T05:17:22.356Z,120.38
2023-04-10T05:19:48.925Z,133.27
2023-04-10T05:22:17.437Z,134.30
2023-04-10T05:24:45.265Z,133.05
2023-04-10T05:27:11.881Z,117.45
2023-04-10T05:29:38.521Z,124.75
2023-04-10T05:32:05.358Z,111.72
2023-04-10T05:34:31.913Z,110.28
2023-04-10T05:36:59.214Z,108.60
2023-04-10T05:39:26.078Z,115.88
2023-04-10T05:41:52.665Z,102.15
2023-04-10T05:44:19.237Z,106.50
2023-04-10T05:46:46.025Z,115.68
2023-04-10T05:49:12.731Z,125.10
2023-04-10T05:51:39.388Z,112.22
2023-04-10T05:54:05.991Z,142.32
2023-04-10T05:56:32.589Z,141.32
2023-04-10T05:58:59.272Z,150.82
2023-04-10T06:01:26.170Z,136.55
2023-04-10T06:03:52.969Z,149.15
2023-04-10T06:06:20.880Z,161.95
2023-04-10T06:08:47.542Z,119.03
2023-04-10T06:11:14.138Z,118.82
2023-04-10T06:13:41.025Z,131.68
2023-04-10T06:16:08.426Z,136.02
2023-04-10T06:18:35.000Z,153.25
2023-04-10T06:21:04.240Z,165.45
2023-04-10T06:23:30.974Z,130.95
2023-04-10T06:25:57.650Z,126.60
2023-04-10T06:28:24.373Z,101.00
2023-04-10T06:30:51.123Z,91.65
2023-04-10T06:33:17.722Z,102.07
2023-04-10T06:35:44.383Z,98.97
2023-04-10T06:38:11.011Z,100.30
2023-04-10T06:40:37.737Z,89.80
2023-04-10T06:43:04.359Z,106.82
2023-04-10T06:45:30.952Z,102.90
2023-04-10T06:47:57.620Z,100.30
2023-04-10T06:50:24.251Z,105.45
2023-04-10T06:52:53.155Z,117.05
2023-04-10T06:55:19.839Z,127.38
2023-04-10T06:57:46.392Z,130.27
2023-04-10T07:00:13.609Z,125.85
2023-04-10T07:02:40.231Z,141.45
2023-04-10T07:05:07.263Z,154.77
2023-04-10T07:07:34.164Z,149.68
2023-04-10T07:10:00.758Z,164.32
2023-04-10T07:12:27.383Z,153.00
2023-04-10T07:14:54.012Z,151.15
2023-04-10T07:17:21.380Z,150.98
2023-04-10T07:19:48.036Z,146.52
2023-04-10T07:22:15.788Z,126.53
2023-04-10T07:24:42.668Z,148.95
2023-04-10T07:27:09.269Z,158.07
2023-04-10T07:29:36.029Z,197.32
2023-04-10T07:32:02.688Z,213.90
2023-04-10T07:34:31.093Z,196.90
2023-04-10T07:36:57.691Z,208.02
2023-04-10T07:39:24.250Z,144.77
2023-04-10T07:41:53.498Z,134.75
2023-04-10T07:44:20.128Z,133.18
2023-04-10T07:46:47.565Z,138.45
2023-04-10T07:49:14.208Z,124.20
2023-04-10T07:51:40.851Z,107.65
2023-04-10T07:54:07.510Z,122.78
2023-04-10T07:56:34.182Z,125.93
2023-04-10T07:59:01.182Z,137.98
2023-04-10T08:01:28.824Z,123.78
2023-04-10T08:03:58.966Z,117.88
2023-04-10T08:06:26.022Z,107.57
2023-04-10T08:08:53.144Z,114.60
2023-04-10T08:11:37.388Z,108.43
2023-04-10T08:14:05.916Z,107.97
2023-04-10T08:16:35.117Z,110.72
2023-04-10T08:19:02.647Z,114.32
2023-04-10T08:21:32.112Z,122.43
2023-04-10T08:24:00.510Z,124.60
2023-04-10T08:26:27.724Z,132.07
2023-04-10T08:28:57.411Z,151.93
2023-04-10T08:31:25.897Z,126.57
2023-04-10T08:33:52.835Z,137.80
2023-04-10T08:36:20.545Z,137.98
2023-04-10T08:38:47.957Z,134.73
2023-04-10T08:41:17.258Z,127.43
2023-04-10T08:43:45.793Z,122.90
2023-04-10T08:46:14.357Z,129.02
2023-04-10T08:48:48.793Z,127.97
2023-04-10T08:51:20.638Z,139.95
2023-04-10T08:53:58.573Z,148.35
2023-04-10T08:56:26.522Z,137.90
2023-04-10T08:58:53.399Z,138.88
2023-04-10T09:02:55.268Z,143.90
2023-04-10T09:05:22.085Z,138.25
2023-04-10T09:07:48.556Z,145.93
2023-04-10T09:10:15.564Z,149.15
2023-04-10T09:12:48.718Z,160.95
2023-04-10T09:15:15.872Z,162.27
2023-04-10T09:17:59.200Z,168.02
2023-04-10T09:20:26.836Z,158.88
2023-04-10T09:22:53.468Z,143.35
2023-04-10T09:25:30.404Z,139.68
2023-04-10T09:28:01.621Z,132.07
2023-04-10T09:30:39.214Z,131.70
2023-04-10T09:33:22.692Z,140.55
2023-04-10T09:35:49.879Z,122.90
2023-04-10T09:38:20.597Z,125.38
2023-04-10T09:40:48.138Z,120.32
2023-04-10T09:43:17.687Z,109.43
2023-04-10T09:45:51.729Z,103.57
2023-04-10T09:48:18.635Z,103.72
2023-04-10T09:50:45.360Z,96.20
2023-04-10T09:53:15.470Z,91.47
2023-04-10T09:55:42.222Z,86.95
2023-04-10T09:58:09.092Z,85.13
2023-04-10T10:00:45.542Z,84.60
2023-04-10T10:05:39.908Z,77.22
2023-04-10T10:08:07.170Z,69.03
2023-04-10T10:10:33.860Z,76.75
2023-04-10T10:13:01.759Z,65.35
2023-04-10T10:15:36.645Z,62.05
2023-04-10T10:18:06.020Z,81.63
2023-04-10T10:20:35.297Z,66.65
2023-04-10T10:23:03.288Z,72.57
2023-04-10T10:25:31.455Z,68.00
2023-04-10T10:28:00.411Z,64.47
2023-04-10T10:30:30.374Z,64.93
2023-04-10T10:32:58.768Z,63.13
2023-04-10T10:35:28.751Z,59.47
2023-04-10T10:37:56.449Z,63.42
2023-04-10T10:40:24.765Z,61.42
2023-04-10T10:43:10.153Z,59.97
2023-04-10T10:45:39.754Z,62.30
2023-04-10T10:48:07.292Z,64.68
2023-04-10T10:50:59.363Z,56.08
2023-04-10T10:53:31.760Z,48.45
2023-04-10T10:55:58.242Z,49.97
2023-04-10T10:58:43.363Z,46.88
2023-04-10T11:01:10.705Z,39.95
2023-04-10T11:03:37.587Z,37.05
2023-04-10T11:06:07.088Z,36.35
2023-04-10T11:08:33.779Z,37.25
2023-04-10T11:11:05.680Z,37.60
2023-04-10T11:13:32.923Z,28.30
2023-04-10T11:16:00.060Z,26.83
2023-04-10T11:18:45.015Z,30.02
2023-04-10T11:21:18.546Z,28.95
2023-04-10T11:23:51.890Z,28.83
2023-04-10T11:26:33.431Z,23.25
2023-04-10T11:29:00.580Z,26.40
2023-04-10T11:31:27.511Z,20.38
2023-04-10T11:33:57.604Z,23.30
2023-04-10T11:36:24.372Z,19.90
2023-04-10T11:38:55.219Z,25.58
2023-04-10T11:41:26.048Z,18.50
2023-04-10T11:43:52.684Z,20.63
2023-04-10T11:46:20.247Z,18.17
2023-04-10T11:48:46.801Z,22.08
2023-04-10T11:51:14.140Z,19.92
2023-04-10T11:53:41.405Z,19.80
2023-04-10T11:56:18.454Z,17.00
2023-04-10T11:58:45.002Z,20.65
2023-04-10T12:01:14.459Z,17.77
2023-04-10T12:03:44.521Z,19.88
2023-04-10T12:06:12.379Z,18.70
2023-04-10T12:08:51.052Z,17.95
2023-04-10T12:11:18.599Z,18.73
2023-04-10T12:13:45.085Z,13.18
2023-04-10T12:16:11.898Z,13.05
2023-04-10T12:18:38.585Z,17.08
2023-04-10T12:21:06.770Z,10.48
2023-04-10T12:23:36.255Z,11.50
2023-04-10T12:26:08.126Z,12.60
2023-04-10T12:28:34.679Z,9.98
2023-04-10T12:31:01.263Z,11.50
2023-04-10T12:33:27.746Z,13.50
2023-04-10T12:35:54.382Z,11.38
2023-04-10T12:38:39.672Z,11.07
2023-04-10T12:41:06.701Z,12.32
2023-04-10T12:43:37.462Z,10.27
2023-04-10T12:46:04.964Z,8.93
2023-04-10T12:48:31.503Z,7.95
2023-04-10T12:50:58.193Z,9.60
2023-04-10T12:53:25.082Z,10.93
2023-04-10T12:55:59.312Z,8.05
2023-04-10T12:58:28.870Z,8.48
2023-04-10T13:00:58.667Z,10.93
2023-04-10T13:03:25.812Z,9.35
2023-04-10T13:05:53.392Z,8.70
2023-04-10T13:08:21.025Z,12.27
2023-04-10T13:10:47.513Z,10.05
2023-04-10T13:13:14.104Z,8.85
2023-04-10T13:15:41.003Z,7.28
2023-04-10T13:18:07.927Z,10.65
2023-04-10T13:20:36.144Z,8.60
2023-04-10T13:23:05.394Z,8.20
2023-04-10T13:25:33.492Z,10.77
2023-04-10T13:28:01.312Z,9.93
2023-04-10T13:30:28.236Z,8.55
2023-04-10T13:32:55.134Z,10.95
2023-04-10T13:35:22.162Z,12.13
2023-04-10T13:37:53.113Z,10.32
2023-04-10T13:40:22.615Z,7.72
2023-04-10T13:42:49.142Z,8.38
2023-04-10T13:45:16.128Z,6.95
2023-04-10T13:47:43.202Z,9.05
2023-04-10T13:50:10.009Z,8.95
2023-04-10T13:52:36.646Z,8.23
2023-04-10T13:55:03.209Z,8.95
2023-04-10T13:57:29.766Z,6.70
2023-04-10T13:59:56.309Z,6.88
2023-04-10T14:02:23.039Z,7.85
2023-04-10T14:04:51.251Z,8.43
2023-04-10T14:07:18.526Z,9.35
2023-04-10T14:09:47.074Z,8.07
2023-04-10T14:12:16.294Z,8.23
2023-04-10T14:14:43.651Z,11.02
2023-04-10T14:17:10.423Z,8.40
2023-04-10T14:19:37.776Z,9.45
2023-04-10T14:22:04.314Z,10.05
2023-04-10T14:24:30.770Z,8.02
2023-04-10T14:27:00.750Z,8.55
2023-04-10T14:29:36.364Z,7.72
2023-04-10T14:32:07.407Z,7.50
2023-04-10T14:34:34.057Z,7.50
2023-04-10T14:37:00.749Z,6.28
2023-04-10T14:39:27.403Z,8.68
2023-04-10T14:41:53.903Z,8.20
2023-04-10T14:44:20.499Z,7.80
2023-04-10T14:46:47.425Z,9.20
2023-04-10T14:49:14.638Z,7.43
2023-04-10T14:51:42.996Z,12.45
2023-04-10T14:54:09.500Z,6.38
2023-04-10T14:56:36.073Z,8.00
2023-04-10T14:59:02.712Z,7.03
2023-04-10T15:01:29.225Z,8.50
2023-04-10T15:03:56.120Z,7.57
2023-04-10T15:06:22.776Z,7.07
2023-04-10T15:08:49.465Z,8.32
2023-04-10T15:11:16.005Z,6.32
2023-04-10T15:13:42.461Z,7.05
2023-04-10T15:16:08.956Z,11.23
2023-04-10T15:18:35.628Z,10.77
2023-04-10T15:21:02.084Z,14.35
2023-04-10T15:23:28.787Z,7.05
2023-04-10T15:25:55.335Z,10.07
2023-04-10T15:28:21.830Z,7.85
2023-04-10T15:30:50.053Z,6.13
2023-04-10T15:33:17.080Z,9.15
2023-04-10T15:35:47.641Z,8.23
2023-04-10T15:38:14.158Z,6.43
2023-04-10T15:40:40.641Z,7.05
2023-04-10T15:43:07.234Z,7.80
2023-04-10T15:45:36.003Z,5.88
2023-04-10T15:48:04.512Z,7.18
2023-04-10T15:50:31.367Z,8.70
2023-04-10T15:52:57.910Z,7.50
2023-04-10T15:55:24.338Z,6.38
2023-04-10T15:57:50.837Z,7.38
2023-04-10T16:00:17.796Z,6.32
2023-04-10T16:02:44.725Z,7.50
2023-04-10T16:05:11.423Z,8.02
2023-04-10T16:07:39.103Z,7.88
2023-04-10T16:10:06.246Z,8.73
2023-04-10T16:12:32.687Z,10.48
2023-04-10T16:14:59.191Z,9.73
2023-04-10T16:17:25.719Z,7.90
2023-04-10T16:19:52.415Z,8.02
2023-04-10T16:22:18.921Z,8.25
2023-04-10T16:24:45.483Z,10.27
2023-04-10T16:27:11.960Z,7.28
2023-04-10T16:29:38.419Z,9.95
2023-04-10T16:32:04.970Z,6.57
2023-04-10T16:34:31.409Z,5.90
2023-04-10T16:36:57.853Z,8.38
2023-04-10T16:39:24.346Z,8.93
2023-04-10T16:41:50.850Z,6.65
2023-04-10T16:44:17.401Z,7.63
2023-04-10T16:46:43.931Z,8.32
2023-04-10T16:49:10.450Z,7.43
2023-04-10T16:51:37.064Z,6.90
2023-04-10T16:54:03.775Z,8.45
2023-04-10T16:56:33.059Z,7.25
2023-04-10T16:58:59.686Z,6.85
2023-04-10T17:01:26.417Z,6.68
2023-04-10T17:03:53.376Z,7.35
2023-04-10T17:06:19.990Z,6.80
2023-04-10T17:08:46.551Z,7.35
2023-04-10T17:11:13.256Z,6.43
2023-04-10T17:13:40.484Z,7.20
2023-04-10T17:16:07.409Z,8.15
2023-04-10T17:18:33.947Z,5.60
2023-04-10T17:21:00.438Z,11.00
2023-04-10T17:23:27.110Z,8.52
2023-04-10T17:25:53.722Z,6.05
2023-04-10T17:28:20.488Z,6.57
2023-04-10T17:30:48.394Z,6.97
2023-04-10T17:33:14.960Z,7.05
2023-04-10T17:35:41.952Z,6.68
2023-04-10T17:38:08.450Z,9.30
2023-04-10T17:40:35.158Z,7.30
2023-04-10T17:43:01.680Z,8.30
2023-04-10T17:45:28.159Z,7.78
2023-04-10T17:47:54.742Z,10.93
2023-04-10T17:50:21.366Z,11.95
2023-04-10T17:52:47.800Z,10.20
2023-04-10T17:55:18.419Z,13.60
2023-04-10T17:57:47.518Z,14.88
2023-04-10T18:00:20.049Z,15.85
2023-04-10T18:02:47.865Z,10.88
2023-04-10T18:05:14.493Z,11.05
2023-04-10T18:07:40.964Z,10.20
2023-04-10T18:10:10.565Z,11.57
2023-04-10T18:12:37.761Z,11.82
2023-04-10T18:15:04.471Z,10.00
2023-04-10T18:17:31.032Z,10.23
2023-04-10T18:19:57.580Z,13.73
2023-04-10T18:22:24.190Z,10.45
2023-04-10T18:24:51.004Z,10.13
2023-04-10T18:27:17.459Z,10.50
2023-04-10T18:29:45.019Z,10.20
2023-04-10T18:32:11.515Z,11.25
2023-04-10T18:34:37.993Z,10.15
2023-04-10T18:37:04.467Z,10.38
2023-04-10T18:39:31.035Z,10.32
2023-04-10T18:41:58.091Z,13.68
2023-04-10T18:44:24.603Z,11.10
2023-04-10T18:47:01.369Z,14.70
2023-04-10T18:49:31.274Z,11.50
2023-04-10T18:51:57.802Z,15.43
2023-04-10T18:54:26.989Z,14.13
2023-04-10T18:56:53.522Z,18.13
2023-04-10T18:59:20.132Z,15.55
2023-04-10T19:01:46.738Z,15.48
2023-04-10T19:04:13.392Z,11.85
2023-04-10T19:06:41.078Z,12.38
2023-04-10T19:09:08.793Z,13.52
2023-04-10T19:11:35.287Z,15.15
2023-04-10T19:14:01.862Z,18.67
2023-04-10T19:16:28.456Z,12.93
2023-04-10T19:18:55.399Z,14.73
2023-04-10T19:21:22.046Z,14.82
2023-04-10T19:23:49.322Z,19.48
2023-04-10T19:26:15.995Z,18.35
2023-04-10T19:28:42.470Z,16.83
2023-04-10T19:31:09.027Z,17.13
2023-04-10T19:33:35.663Z,15.15
2023-04-10T19:36:02.234Z,15.45
2023-04-10T19:38:29.476Z,14.18
2023-04-10T19:40:56.011Z,15.93
2023-04-10T19:43:22.549Z,19.17
2023-04-10T19:45:49.040Z,16.05
2023-04-10T19:48:16.120Z,16.80
2023-04-10T19:50:42.621Z,18.00
2023-04-10T19:53:12.795Z,19.20
2023-04-10T19:55:40.542Z,15.70
2023-04-10T19:58:10.508Z,18.42
2023-04-10T20:00:39.838Z,19.38
2023-04-10T20:03:06.899Z,14.50
2023-04-10T20:05:35.395Z,16.83
2023-04-10T20:08:01.922Z,12.45
2023-04-10T20:10:28.408Z,17.50
2023-04-10T20:12:54.939Z,15.90
2023-04-10T20:15:21.567Z,15.88
2023-04-10T20:17:48.177Z,19.33
2023-04-10T20:20:14.711Z,15.73
2023-04-10T20:22:41.220Z,16.77
2023-04-10T20:25:07.875Z,17.88
2023-04-10T20:27:34.384Z,21.02
2023-04-10T20:30:00.880Z,17.08
2023-04-10T20:32:27.583Z,20.92
2023-04-10T20:34:54.145Z,25.98
2023-04-10T20:37:22.034Z,26.42
2023-04-10T20:39:49.117Z,29.88
2023-04-10T20:42:17.002Z,23.73
2023-04-10T20:44:43.534Z,25.20
2023-04-10T20:47:10.115Z,29.27
2023-04-10T20:49:38.222Z,25.83
2023-04-10T20:52:05.391Z,22.15
2023-04-10T20:54:32.283Z,22.90
2023-04-10T20:57:00.172Z,22.88
2023-04-10T20:59:26.804Z,23.65
2023-04-10T21:01:53.345Z,18.15
2023-04-10T21:04:20.121Z,24.83
2023-04-10T21:06:46.755Z,16.38
2023-04-10T21:09:13.265Z,20.98
2023-04-10T21:11:39.774Z,19.90
2023-04-10T21:14:06.273Z,16.98
2023-04-10T21:16:34.798Z,20.58
2023-04-10T21:19:01.338Z,21.40
2023-04-10T21:21:27.893Z,21.70
2023-04-10T21:23:54.711Z,23.00
2023-04-10T21:26:21.211Z,19.10
2023-04-10T21:28:47.740Z,19.23
2023-04-10T21:31:14.546Z,23.50
2023-04-10T21:33:41.075Z,25.05
2023-04-10T21:36:07.623Z,23.05
2023-04-10T21:38:35.317Z,20.33
2023-04-10T21:41:01.975Z,23.88
2023-04-10T21:43:28.445Z,26.67
2023-04-10T21:45:55.056Z,25.08
2023-04-10T21:48:21.637Z,25.30
2023-04-10T21:50:49.425Z,24.45
2023-04-10T21:53:15.925Z,21.88
2023-04-10T21:55:42.513Z,22.75
2023-04-10T21:58:09.013Z,25.17
2023-04-10T22:00:35.656Z,24.80
2023-04-10T22:03:02.248Z,24.10
2023-04-10T22:05:28.935Z,23.05
2023-04-10T22:07:55.603Z,23.80
2023-04-10T22:10:22.446Z,27.30
2023-04-10T22:12:49.597Z,26.42
2023-04-10T22:15:16.413Z,26.60
2023-04-10T22:17:42.933Z,24.77
2023-04-10T22:20:09.788Z,25.35
2023-04-10T22:22:36.362Z,22.00
2023-04-10T22:25:02.925Z,28.52
2023-04-10T22:27:29.471Z,22.23
2023-04-10T22:30:03.154Z,22.63
2023-04-10T22:32:30.989Z,23.08
2023-04-10T22:34:58.559Z,23.40
2023-04-10T22:37:25.079Z,22.58
2023-04-10T22:39:51.554Z,21.48
2023-04-10T22:42:18.010Z,23.58
2023-04-10T22:44:45.419Z,27.73
2023-04-10T22:47:11.854Z,26.83
2023-04-10T22:49:38.300Z,27.02
2023-04-10T22:52:04.851Z,27.92
2023-04-10T22:54:31.320Z,23.65
2023-04-10T22:56:58.006Z,27.13
2023-04-10T22:59:24.522Z,25.45
2023-04-10T23:01:51.313Z,22.77
2023-04-10T23:04:18.078Z,20.63
2023-04-10T23:06:44.784Z,24.88
2023-04-10T23:09:11.220Z,22.65
2023-04-10T23:11:37.738Z,24.98
2023-04-10T23:14:04.261Z,25.08
2023-04-10T23:16:31.033Z,25.67
2023-04-10T23:18:57.596Z,27.58
2023-04-10T23:21:24.182Z,23.77
2023-04-10T23:23:50.617Z,24.98
2023-04-10T23:26:17.046Z,24.45
2023-04-10T23:28:43.547Z,26.23
2023-04-10T23:31:10.153Z,24.75
2023-04-10T23:33:36.774Z,24.73
2023-04-10T23:36:03.377Z,29.00
2023-04-10T23:38:29.905Z,28.70
2023-04-10T23:40:56.400Z,22.25
2023-04-10T23:43:22.840Z,25.50
2023-04-10T23:45:49.263Z,25.13
2023-04-10T23:48:15.740Z,26.25
2023-04-10T23:50:42.189Z,25.67
2023-04-10T23:53:08.912Z,25.70
2023-04-10T23:55:35.831Z,27.35
2023-04-10T23:58:02.521Z,28.05
